sensor_id;sensor_type;location;lat;lon;timestamp;P1;durP1;ratioP1;P2;durP2;ratioP2
59308;SDS011;48433;53.016;-2.260;2022-11-20T00:01:29;18.67;;;8.55;;
59308;SDS011;48433;53.016;-2.260;2022-11-20T00:03:57;18.20;;;7.78;;
59308;SDS011;48433;53.016;-2.260;2022-11-20T00:06:26;13.45;;;7.47;;
59308;SDS011;48433;53.016;-2.260;2022-11-20T00:08:55;16.73;;;8.07;;
59308;SDS011;48433;53.016;-2.260;2022-11-20T00:11:25;18.40;;;7.57;;
59308;SDS011;48433;53.016;-2.260;2022-11-20T00:13:54;17.38;;;8.45;;
59308;SDS011;48433;53.016;-2.260;2022-11-20T00:16:27;15.77;;;8.90;;
59308;SDS011;48433;53.016;-2.260;2022-11-20T00:18:56;13.38;;;7.38;;
59308;SDS011;48433;53.016;-2.260;2022-11-20T00:21:27;18.20;;;9.30;;
59308;SDS011;48433;53.016;-2.260;2022-11-20T00:23:56;21.25;;;9.45;;
59308;SDS011;48433;53.016;-2.260;2022-11-20T00:26:24;17.13;;;7.95;;
59308;SDS011;48433;53.016;-2.260;2022-11-20T00:28:58;14.98;;;8.10;;
59308;SDS011;48433;53.016;-2.260;2022-11-20T00:31:27;17.52;;;8.82;;
59308;SDS011;48433;53.016;-2.260;2022-11-20T00:33:56;15.75;;;7.95;;
59308;SDS011;48433;53.016;-2.260;2022-11-20T00:36:24;18.42;;;9.40;;
59308;SDS011;48433;53.016;-2.260;2022-11-20T00:38:54;17.85;;;8.40;;
59308;SDS011;48433;53.016;-2.260;2022-11-20T00:41:23;14.70;;;8.15;;
59308;SDS011;48433;53.016;-2.260;2022-11-20T00:43:53;24.80;;;10.07;;
59308;SDS011;48433;53.016;-2.260;2022-11-20T00:46:22;16.00;;;8.95;;
59308;SDS011;48433;53.016;-2.260;2022-11-20T00:48:51;25.70;;;8.70;;
59308;SDS011;48433;53.016;-2.260;2022-11-20T00:51:20;20.83;;;9.13;;
59308;SDS011;48433;53.016;-2.260;2022-11-20T00:53:49;19.30;;;8.93;;
59308;SDS011;48433;53.016;-2.260;2022-11-20T00:56:17;19.25;;;9.77;;
59308;SDS011;48433;53.016;-2.260;2022-11-20T00:58:46;21.20;;;9.52;;
59308;SDS011;48433;53.016;-2.260;2022-11-20T01:01:16;16.50;;;8.45;;
59308;SDS011;48433;53.016;-2.260;2022-11-20T01:03:47;17.20;;;8.50;;
59308;SDS011;48433;53.016;-2.260;2022-11-20T01:06:16;14.93;;;6.45;;
59308;SDS011;48433;53.016;-2.260;2022-11-20T01:08:46;17.25;;;7.28;;
59308;SDS011;48433;53.016;-2.260;2022-11-20T01:11:19;16.63;;;8.77;;
59308;SDS011;48433;53.016;-2.260;2022-11-20T01:13:48;14.80;;;8.07;;
59308;SDS011;48433;53.016;-2.260;2022-11-20T01:16:26;20.23;;;8.50;;
59308;SDS011;48433;53.016;-2.260;2022-11-20T01:19:06;18.20;;;8.63;;
59308;SDS011;48433;53.016;-2.260;2022-11-20T01:21:44;18.58;;;8.85;;
59308;SDS011;48433;53.016;-2.260;2022-11-20T01:24:14;19.73;;;8.75;;
59308;SDS011;48433;53.016;-2.260;2022-11-20T01:26:43;15.32;;;8.00;;
59308;SDS011;48433;53.016;-2.260;2022-11-20T01:29:15;20.05;;;10.43;;
59308;SDS011;48433;53.016;-2.260;2022-11-20T01:31:45;19.25;;;7.15;;
59308;SDS011;48433;53.016;-2.260;2022-11-20T01:34:14;18.60;;;6.40;;
59308;SDS011;48433;53.016;-2.260;2022-11-20T01:36:44;14.55;;;7.28;;
59308;SDS011;48433;53.016;-2.260;2022-11-20T01:39:16;14.50;;;6.32;;
59308;SDS011;48433;53.016;-2.260;2022-11-20T01:41:46;13.43;;;6.13;;
59308;SDS011;48433;53.016;-2.260;2022-11-20T01:47:23;15.13;;;5.88;;
59308;SDS011;48433;53.016;-2.260;2022-11-20T01:50:26;13.30;;;5.65;;
59308;SDS011;48433;53.016;-2.260;2022-11-20T01:53:02;16.13;;;5.05;;
59308;SDS011;48433;53.016;-2.260;2022-11-20T01:55:37;10.80;;;4.53;;
59308;SDS011;48433;53.016;-2.260;2022-11-20T01:58:08;9.95;;;4.80;;
59308;SDS011;48433;53.016;-2.260;2022-11-20T02:00:36;9.35;;;4.53;;
59308;SDS011;48433;53.016;-2.260;2022-11-20T02:03:04;11.32;;;4.25;;
59308;SDS011;48433;53.016;-2.260;2022-11-20T02:05:36;11.85;;;4.70;;
59308;SDS011;48433;53.016;-2.260;2022-11-20T02:08:12;11.50;;;4.13;;
59308;SDS011;48433;53.016;-2.260;2022-11-20T02:10:40;9.55;;;4.88;;
59308;SDS011;48433;53.016;-2.260;2022-11-20T02:13:07;13.13;;;4.68;;
59308;SDS011;48433;53.016;-2.260;2022-11-20T02:15:54;8.45;;;4.25;;
59308;SDS011;48433;53.016;-2.260;2022-11-20T02:18:22;14.95;;;5.30;;
59308;SDS011;48433;53.016;-2.260;2022-11-20T02:20:53;12.88;;;5.18;;
59308;SDS011;48433;53.016;-2.260;2022-11-20T02:23:36;13.77;;;5.20;;
59308;SDS011;48433;53.016;-2.260;2022-11-20T02:26:11;14.93;;;5.40;;
59308;SDS011;48433;53.016;-2.260;2022-11-20T02:28:41;13.88;;;5.25;;
59308;SDS011;48433;53.016;-2.260;2022-11-20T02:31:08;11.30;;;5.50;;
59308;SDS011;48433;53.016;-2.260;2022-11-20T02:33:36;14.02;;;6.13;;
59308;SDS011;48433;53.016;-2.260;2022-11-20T02:36:04;13.25;;;6.03;;
59308;SDS011;48433;53.016;-2.260;2022-11-20T02:38:31;12.10;;;6.93;;
59308;SDS011;48433;53.016;-2.260;2022-11-20T02:40:59;13.52;;;6.13;;
59308;SDS011;48433;53.016;-2.260;2022-11-20T02:43:27;13.23;;;6.63;;
59308;SDS011;48433;53.016;-2.260;2022-11-20T02:45:54;13.85;;;5.72;;
59308;SDS011;48433;53.016;-2.260;2022-11-20T02:48:22;14.65;;;6.50;;
59308;SDS011;48433;53.016;-2.260;2022-11-20T02:50:51;11.57;;;5.32;;
59308;SDS011;48433;53.016;-2.260;2022-11-20T02:53:18;17.42;;;7.20;;
59308;SDS011;48433;53.016;-2.260;2022-11-20T02:55:46;15.52;;;6.28;;
59308;SDS011;48433;53.016;-2.260;2022-11-20T02:58:14;13.32;;;6.40;;
59308;SDS011;48433;53.016;-2.260;2022-11-20T03:00:41;13.80;;;5.70;;
59308;SDS011;48433;53.016;-2.260;2022-11-20T03:03:09;15.30;;;6.25;;
59308;SDS011;48433;53.016;-2.260;2022-11-20T03:05:36;15.27;;;6.40;;
59308;SDS011;48433;53.016;-2.260;2022-11-20T03:08:04;10.45;;;5.30;;
59308;SDS011;48433;53.016;-2.260;2022-11-20T03:10:32;11.73;;;6.18;;
59308;SDS011;48433;53.016;-2.260;2022-11-20T03:12:59;14.73;;;5.55;;
59308;SDS011;48433;53.016;-2.260;2022-11-20T03:15:29;11.68;;;5.78;;
59308;SDS011;48433;53.016;-2.260;2022-11-20T03:17:57;15.32;;;6.95;;
59308;SDS011;48433;53.016;-2.260;2022-11-20T03:20:24;12.63;;;5.70;;
59308;SDS011;48433;53.016;-2.260;2022-11-20T03:22:53;16.27;;;7.15;;
59308;SDS011;48433;53.016;-2.260;2022-11-20T03:25:21;15.05;;;7.18;;
59308;SDS011;48433;53.016;-2.260;2022-11-20T03:27:49;13.45;;;6.95;;
59308;SDS011;48433;53.016;-2.260;2022-11-20T03:30:17;14.02;;;6.72;;
59308;SDS011;48433;53.016;-2.260;2022-11-20T03:32:45;13.75;;;7.30;;
59308;SDS011;48433;53.016;-2.260;2022-11-20T03:35:13;15.80;;;7.40;;
59308;SDS011;48433;53.016;-2.260;2022-11-20T03:37:40;16.30;;;7.68;;
59308;SDS011;48433;53.016;-2.260;2022-11-20T03:40:08;17.38;;;7.60;;
59308;SDS011;48433;53.016;-2.260;2022-11-20T03:42:36;12.00;;;7.20;;
59308;SDS011;48433;53.016;-2.260;2022-11-20T03:45:13;15.90;;;7.28;;
59308;SDS011;48433;53.016;-2.260;2022-11-20T03:47:43;12.60;;;6.88;;
59308;SDS011;48433;53.016;-2.260;2022-11-20T03:50:12;14.15;;;7.43;;
59308;SDS011;48433;53.016;-2.260;2022-11-20T03:53:16;12.30;;;7.55;;
59308;SDS011;48433;53.016;-2.260;2022-11-20T03:55:44;16.30;;;8.20;;
59308;SDS011;48433;53.016;-2.260;2022-11-20T03:58:11;12.32;;;7.40;;
59308;SDS011;48433;53.016;-2.260;2022-11-20T04:00:40;12.95;;;8.60;;
59308;SDS011;48433;53.016;-2.260;2022-11-20T04:03:07;12.40;;;6.90;;
59308;SDS011;48433;53.016;-2.260;2022-11-20T04:05:35;12.25;;;7.53;;
59308;SDS011;48433;53.016;-2.260;2022-11-20T04:08:02;13.95;;;7.88;;
59308;SDS011;48433;53.016;-2.260;2022-11-20T04:10:30;14.50;;;7.70;;
59308;SDS011;48433;53.016;-2.260;2022-11-20T04:12:58;13.40;;;7.70;;
59308;SDS011;48433;53.016;-2.260;2022-11-20T04:15:25;11.00;;;7.10;;
59308;SDS011;48433;53.016;-2.260;2022-11-20T04:17:53;10.52;;;6.97;;
59308;SDS011;48433;53.016;-2.260;2022-11-20T04:20:21;13.75;;;7.05;;
59308;SDS011;48433;53.016;-2.260;2022-11-20T04:22:49;13.63;;;7.25;;
59308;SDS011;48433;53.016;-2.260;2022-11-20T04:25:19;10.55;;;6.93;;
59308;SDS011;48433;53.016;-2.260;2022-11-20T04:27:47;10.88;;;7.32;;
59308;SDS011;48433;53.016;-2.260;2022-11-20T04:30:14;13.77;;;6.80;;
59308;SDS011;48433;53.016;-2.260;2022-11-20T04:32:42;12.55;;;6.40;;
59308;SDS011;48433;53.016;-2.260;2022-11-20T04:35:09;11.35;;;6.50;;
59308;SDS011;48433;53.016;-2.260;2022-11-20T04:37:37;9.85;;;6.10;;
59308;SDS011;48433;53.016;-2.260;2022-11-20T04:40:04;10.63;;;5.78;;
59308;SDS011;48433;53.016;-2.260;2022-11-20T04:42:32;8.18;;;5.05;;
59308;SDS011;48433;53.016;-2.260;2022-11-20T04:45:00;9.07;;;5.57;;
59308;SDS011;48433;53.016;-2.260;2022-11-20T04:47:29;9.82;;;6.07;;
59308;SDS011;48433;53.016;-2.260;2022-11-20T04:49:56;9.85;;;6.10;;
59308;SDS011;48433;53.016;-2.260;2022-11-20T04:52:24;11.25;;;6.30;;
59308;SDS011;48433;53.016;-2.260;2022-11-20T04:54:51;11.20;;;6.28;;
59308;SDS011;48433;53.016;-2.260;2022-11-20T04:57:20;9.30;;;5.97;;
59308;SDS011;48433;53.016;-2.260;2022-11-20T04:59:47;9.13;;;5.25;;
59308;SDS011;48433;53.016;-2.260;2022-11-20T05:02:15;9.40;;;6.10;;
59308;SDS011;48433;53.016;-2.260;2022-11-20T05:04:43;10.98;;;6.88;;
59308;SDS011;48433;53.016;-2.260;2022-11-20T05:07:10;11.10;;;6.10;;
59308;SDS011;48433;53.016;-2.260;2022-11-20T05:09:38;8.45;;;5.57;;
59308;SDS011;48433;53.016;-2.260;2022-11-20T05:12:07;9.88;;;6.63;;
59308;SDS011;48433;53.016;-2.260;2022-11-20T05:14:35;10.32;;;6.18;;
59308;SDS011;48433;53.016;-2.260;2022-11-20T05:17:03;9.52;;;7.00;;
59308;SDS011;48433;53.016;-2.260;2022-11-20T05:19:30;10.77;;;6.68;;
59308;SDS011;48433;53.016;-2.260;2022-11-20T05:21:58;10.82;;;6.82;;
59308;SDS011;48433;53.016;-2.260;2022-11-20T05:24:25;12.05;;;7.05;;
59308;SDS011;48433;53.016;-2.260;2022-11-20T05:26:53;11.60;;;7.40;;
59308;SDS011;48433;53.016;-2.260;2022-11-20T05:29:21;13.68;;;7.10;;
59308;SDS011;48433;53.016;-2.260;2022-11-20T05:31:49;13.95;;;7.57;;
59308;SDS011;48433;53.016;-2.260;2022-11-20T05:34:16;10.57;;;7.45;;
59308;SDS011;48433;53.016;-2.260;2022-11-20T05:36:44;14.80;;;8.52;;
59308;SDS011;48433;53.016;-2.260;2022-11-20T05:39:11;14.40;;;8.85;;
59308;SDS011;48433;53.016;-2.260;2022-11-20T05:41:39;10.68;;;6.90;;
59308;SDS011;48433;53.016;-2.260;2022-11-20T05:44:06;11.40;;;7.18;;
59308;SDS011;48433;53.016;-2.260;2022-11-20T05:46:37;13.02;;;7.20;;
59308;SDS011;48433;53.016;-2.260;2022-11-20T05:49:04;14.30;;;7.13;;
59308;SDS011;48433;53.016;-2.260;2022-11-20T05:51:32;12.73;;;8.18;;
59308;SDS011;48433;53.016;-2.260;2022-11-20T05:53:59;15.55;;;9.73;;
59308;SDS011;48433;53.016;-2.260;2022-11-20T05:56:27;14.48;;;9.75;;
59308;SDS011;48433;53.016;-2.260;2022-11-20T05:58:55;16.38;;;10.40;;
59308;SDS011;48433;53.016;-2.260;2022-11-20T06:01:24;18.35;;;10.48;;
59308;SDS011;48433;53.016;-2.260;2022-11-20T06:03:53;21.52;;;11.52;;
59308;SDS011;48433;53.016;-2.260;2022-11-20T06:06:21;18.08;;;11.05;;
59308;SDS011;48433;53.016;-2.260;2022-11-20T06:08:49;19.40;;;11.00;;
59308;SDS011;48433;53.016;-2.260;2022-11-20T06:11:17;21.33;;;11.25;;
59308;SDS011;48433;53.016;-2.260;2022-11-20T06:13:45;18.63;;;11.50;;
59308;SDS011;48433;53.016;-2.260;2022-11-20T06:16:14;19.52;;;12.23;;
59308;SDS011;48433;53.016;-2.260;2022-11-20T06:18:43;19.00;;;13.50;;
59308;SDS011;48433;53.016;-2.260;2022-11-20T06:21:21;20.85;;;13.40;;
59308;SDS011;48433;53.016;-2.260;2022-11-20T06:23:49;24.80;;;14.02;;
59308;SDS011;48433;53.016;-2.260;2022-11-20T06:26:20;24.05;;;13.77;;
59308;SDS011;48433;53.016;-2.260;2022-11-20T06:28:49;22.50;;;13.75;;
59308;SDS011;48433;53.016;-2.260;2022-11-20T06:31:19;27.63;;;15.95;;
59308;SDS011;48433;53.016;-2.260;2022-11-20T06:33:48;23.80;;;13.95;;
59308;SDS011;48433;53.016;-2.260;2022-11-20T06:36:17;21.05;;;13.55;;
59308;SDS011;48433;53.016;-2.260;2022-11-20T06:38:46;20.75;;;13.60;;
59308;SDS011;48433;53.016;-2.260;2022-11-20T06:41:15;24.50;;;13.10;;
59308;SDS011;48433;53.016;-2.260;2022-11-20T06:43:45;24.98;;;12.95;;
59308;SDS011;48433;53.016;-2.260;2022-11-20T06:46:13;19.85;;;10.80;;
59308;SDS011;48433;53.016;-2.260;2022-11-20T06:48:41;18.98;;;10.43;;
59308;SDS011;48433;53.016;-2.260;2022-11-20T06:51:09;18.08;;;10.70;;
59308;SDS011;48433;53.016;-2.260;2022-11-20T06:53:37;22.60;;;10.40;;
59308;SDS011;48433;53.016;-2.260;2022-11-20T06:56:05;18.08;;;9.75;;
59308;SDS011;48433;53.016;-2.260;2022-11-20T06:58:34;18.20;;;10.70;;
59308;SDS011;48433;53.016;-2.260;2022-11-20T07:01:04;17.83;;;9.63;;
59308;SDS011;48433;53.016;-2.260;2022-11-20T07:03:34;19.23;;;8.60;;
59308;SDS011;48433;53.016;-2.260;2022-11-20T07:06:02;22.63;;;9.75;;
59308;SDS011;48433;53.016;-2.260;2022-11-20T07:08:31;19.00;;;9.35;;
59308;SDS011;48433;53.016;-2.260;2022-11-20T07:11:00;14.82;;;8.82;;
59308;SDS011;48433;53.016;-2.260;2022-11-20T07:13:30;25.80;;;9.75;;
59308;SDS011;48433;53.016;-2.260;2022-11-20T07:15:59;18.65;;;9.23;;
59308;SDS011;48433;53.016;-2.260;2022-11-20T07:18:29;21.80;;;8.10;;
59308;SDS011;48433;53.016;-2.260;2022-11-20T07:20:59;20.77;;;9.57;;
59308;SDS011;48433;53.016;-2.260;2022-11-20T07:23:28;24.33;;;8.15;;
59308;SDS011;48433;53.016;-2.260;2022-11-20T07:25:56;24.10;;;9.85;;
59308;SDS011;48433;53.016;-2.260;2022-11-20T07:28:23;21.25;;;9.93;;
59308;SDS011;48433;53.016;-2.260;2022-11-20T07:30:52;23.15;;;10.65;;
59308;SDS011;48433;53.016;-2.260;2022-11-20T07:33:20;25.20;;;10.13;;
59308;SDS011;48433;53.016;-2.260;2022-11-20T07:35:48;15.43;;;8.68;;
59308;SDS011;48433;53.016;-2.260;2022-11-20T07:38:15;21.77;;;9.10;;
59308;SDS011;48433;53.016;-2.260;2022-11-20T07:40:43;16.85;;;7.45;;
59308;SDS011;48433;53.016;-2.260;2022-11-20T07:43:11;20.63;;;8.57;;
59308;SDS011;48433;53.016;-2.260;2022-11-20T07:45:38;11.48;;;6.22;;
59308;SDS011;48433;53.016;-2.260;2022-11-20T07:48:06;14.43;;;7.40;;
59308;SDS011;48433;53.016;-2.260;2022-11-20T07:50:33;18.38;;;6.57;;
59308;SDS011;48433;53.016;-2.260;2022-11-20T07:53:04;21.20;;;8.45;;
59308;SDS011;48433;53.016;-2.260;2022-11-20T07:55:32;14.05;;;6.10;;
59308;SDS011;48433;53.016;-2.260;2022-11-20T07:58:00;19.08;;;7.75;;
59308;SDS011;48433;53.016;-2.260;2022-11-20T08:00:27;18.85;;;8.00;;
59308;SDS011;48433;53.016;-2.260;2022-11-20T08:02:55;20.13;;;8.02;;
59308;SDS011;48433;53.016;-2.260;2022-11-20T08:05:23;21.45;;;11.07;;
59308;SDS011;48433;53.016;-2.260;2022-11-20T08:07:50;17.65;;;7.88;;
59308;SDS011;48433;53.016;-2.260;2022-11-20T08:10:18;22.08;;;8.60;;
59308;SDS011;48433;53.016;-2.260;2022-11-20T08:12:46;26.45;;;9.70;;
59308;SDS011;48433;53.016;-2.260;2022-11-20T08:15:34;19.90;;;7.63;;
59308;SDS011;48433;53.016;-2.260;2022-11-20T08:18:09;21.70;;;8.30;;
59308;SDS011;48433;53.016;-2.260;2022-11-20T08:21:01;19.42;;;5.95;;
59308;SDS011;48433;53.016;-2.260;2022-11-20T08:23:30;19.75;;;5.95;;
59308;SDS011;48433;53.016;-2.260;2022-11-20T08:25:58;18.67;;;5.95;;
59308;SDS011;48433;53.016;-2.260;2022-11-20T08:28:26;23.73;;;6.03;;
59308;SDS011;48433;53.016;-2.260;2022-11-20T08:30:57;18.77;;;6.13;;
59308;SDS011;48433;53.016;-2.260;2022-11-20T08:33:26;23.98;;;6.45;;
59308;SDS011;48433;53.016;-2.260;2022-11-20T08:35:57;17.63;;;5.35;;
59308;SDS011;48433;53.016;-2.260;2022-11-20T08:38:26;28.20;;;5.97;;
59308;SDS011;48433;53.016;-2.260;2022-11-20T08:41:01;27.10;;;8.75;;
59308;SDS011;48433;53.016;-2.260;2022-11-20T08:43:54;22.88;;;6.45;;
59308;SDS011;48433;53.016;-2.260;2022-11-20T08:46:26;17.58;;;5.43;;
59308;SDS011;48433;53.016;-2.260;2022-11-20T08:48:57;25.67;;;5.47;;
59308;SDS011;48433;53.016;-2.260;2022-11-20T08:51:25;21.80;;;5.28;;
59308;SDS011;48433;53.016;-2.260;2022-11-20T08:53:53;18.52;;;5.43;;
59308;SDS011;48433;53.016;-2.260;2022-11-20T08:56:21;14.52;;;4.20;;
59308;SDS011;48433;53.016;-2.260;2022-11-20T08:58:49;17.65;;;4.43;;
59308;SDS011;48433;53.016;-2.260;2022-11-20T09:01:37;18.42;;;3.63;;
59308;SDS011;48433;53.016;-2.260;2022-11-20T09:04:05;20.85;;;4.18;;
59308;SDS011;48433;53.016;-2.260;2022-11-20T09:06:33;16.13;;;3.80;;
59308;SDS011;48433;53.016;-2.260;2022-11-20T09:09:01;16.10;;;3.28;;
59308;SDS011;48433;53.016;-2.260;2022-11-20T09:11:36;24.73;;;4.53;;
59308;SDS011;48433;53.016;-2.260;2022-11-20T09:14:04;25.65;;;4.35;;
59308;SDS011;48433;53.016;-2.260;2022-11-20T09:16:31;16.77;;;3.60;;
59308;SDS011;48433;53.016;-2.260;2022-11-20T09:18:59;13.45;;;3.30;;
59308;SDS011;48433;53.016;-2.260;2022-11-20T09:21:46;16.60;;;4.15;;
59308;SDS011;48433;53.016;-2.260;2022-11-20T09:24:14;21.10;;;3.78;;
59308;SDS011;48433;53.016;-2.260;2022-11-20T09:26:41;19.13;;;3.92;;
59308;SDS011;48433;53.016;-2.260;2022-11-20T09:29:09;18.40;;;3.85;;
59308;SDS011;48433;53.016;-2.260;2022-11-20T09:31:36;14.95;;;3.28;;
59308;SDS011;48433;53.016;-2.260;2022-11-20T09:34:04;16.08;;;3.38;;
59308;SDS011;48433;53.016;-2.260;2022-11-20T09:36:32;15.52;;;3.95;;
59308;SDS011;48433;53.016;-2.260;2022-11-20T09:38:59;17.95;;;3.78;;
59308;SDS011;48433;53.016;-2.260;2022-11-20T09:41:50;16.40;;;3.47;;
59308;SDS011;48433;53.016;-2.260;2022-11-20T09:44:56;13.13;;;3.78;;
59308;SDS011;48433;53.016;-2.260;2022-11-20T09:50:45;14.60;;;3.80;;
59308;SDS011;48433;53.016;-2.260;2022-11-20T09:53:40;15.15;;;3.58;;
59308;SDS011;48433;53.016;-2.260;2022-11-20T09:56:27;20.63;;;4.18;;
59308;SDS011;48433;53.016;-2.260;2022-11-20T09:58:57;14.95;;;3.42;;
59308;SDS011;48433;53.016;-2.260;2022-11-20T10:01:30;12.68;;;3.28;;
59308;SDS011;48433;53.016;-2.260;2022-11-20T10:07:15;14.02;;;3.50;;
59308;SDS011;48433;53.016;-2.260;2022-11-20T10:09:58;15.00;;;3.72;;
59308;SDS011;48433;53.016;-2.260;2022-11-20T10:12:30;15.35;;;3.92;;
59308;SDS011;48433;53.016;-2.260;2022-11-20T10:15:06;17.63;;;3.80;;
59308;SDS011;48433;53.016;-2.260;2022-11-20T10:29:43;11.70;;;3.53;;
59308;SDS011;48433;53.016;-2.260;2022-11-20T10:32:15;16.92;;;4.22;;
59308;SDS011;48433;53.016;-2.260;2022-11-20T10:37:50;12.85;;;3.13;;
59308;SDS011;48433;53.016;-2.260;2022-11-20T10:43:27;14.13;;;3.97;;
59308;SDS011;48433;53.016;-2.260;2022-11-20T10:46:00;11.85;;;3.03;;
59308;SDS011;48433;53.016;-2.260;2022-11-20T10:48:32;12.82;;;3.40;;
59308;SDS011;48433;53.016;-2.260;2022-11-20T10:56:51;13.02;;;3.38;;
59308;SDS011;48433;53.016;-2.260;2022-11-20T11:02:34;10.93;;;3.70;;
59308;SDS011;48433;53.016;-2.260;2022-11-20T11:05:36;12.95;;;2.95;;
59308;SDS011;48433;53.016;-2.260;2022-11-20T11:08:23;12.75;;;3.17;;
59308;SDS011;48433;53.016;-2.260;2022-11-20T11:10:59;10.05;;;3.08;;
59308;SDS011;48433;53.016;-2.260;2022-11-20T11:13:34;13.82;;;3.33;;
59308;SDS011;48433;53.016;-2.260;2022-11-20T11:16:01;11.27;;;3.00;;
59308;SDS011;48433;53.016;-2.260;2022-11-20T11:18:31;12.75;;;2.85;;
59308;SDS011;48433;53.016;-2.260;2022-11-20T11:21:00;12.27;;;2.92;;
59308;SDS011;48433;53.016;-2.260;2022-11-20T11:23:31;13.00;;;3.40;;
59308;SDS011;48433;53.016;-2.260;2022-11-20T11:26:02;14.07;;;3.53;;
59308;SDS011;48433;53.016;-2.260;2022-11-20T11:28:32;12.02;;;3.05;;
59308;SDS011;48433;53.016;-2.260;2022-11-20T11:31:00;10.00;;;3.05;;
59308;SDS011;48433;53.016;-2.260;2022-11-20T11:33:29;14.30;;;4.07;;
59308;SDS011;48433;53.016;-2.260;2022-11-20T11:36:14;13.73;;;3.20;;
59308;SDS011;48433;53.016;-2.260;2022-11-20T11:38:52;12.65;;;3.65;;
59308;SDS011;48433;53.016;-2.260;2022-11-20T11:41:22;14.30;;;3.40;;
59308;SDS011;48433;53.016;-2.260;2022-11-20T11:43:53;14.82;;;3.63;;
59308;SDS011;48433;53.016;-2.260;2022-11-20T11:46:54;15.98;;;4.00;;
59308;SDS011;48433;53.016;-2.260;2022-11-20T11:49:23;12.98;;;3.78;;
59308;SDS011;48433;53.016;-2.260;2022-11-20T11:57:10;18.70;;;3.70;;
59308;SDS011;48433;53.016;-2.260;2022-11-20T12:02:37;15.57;;;3.78;;
59308;SDS011;48433;53.016;-2.260;2022-11-20T12:05:16;17.25;;;2.95;;
59308;SDS011;48433;53.016;-2.260;2022-11-20T12:07:49;19.38;;;3.65;;
59308;SDS011;48433;53.016;-2.260;2022-11-20T12:16:11;17.40;;;3.97;;
59308;SDS011;48433;53.016;-2.260;2022-11-20T12:18:41;14.93;;;3.75;;
59308;SDS011;48433;53.016;-2.260;2022-11-20T12:23:45;14.30;;;4.00;;
59308;SDS011;48433;53.016;-2.260;2022-11-20T12:43:47;12.57;;;3.25;;
59308;SDS011;48433;53.016;-2.260;2022-11-20T12:46:46;15.27;;;3.92;;
59308;SDS011;48433;53.016;-2.260;2022-11-20T12:57:25;18.70;;;4.05;;
59308;SDS011;48433;53.016;-2.260;2022-11-20T13:00:14;18.20;;;4.22;;
59308;SDS011;48433;53.016;-2.260;2022-11-20T13:08:28;17.17;;;4.05;;
59308;SDS011;48433;53.016;-2.260;2022-11-20T13:16:33;17.67;;;3.35;;
59308;SDS011;48433;53.016;-2.260;2022-11-20T13:19:12;19.60;;;3.47;;
59308;SDS011;48433;53.016;-2.260;2022-11-20T13:21:43;16.75;;;3.25;;
59308;SDS011;48433;53.016;-2.260;2022-11-20T13:26:47;17.65;;;3.20;;
59308;SDS011;48433;53.016;-2.260;2022-11-20T13:29:18;13.60;;;3.20;;
59308;SDS011;48433;53.016;-2.260;2022-11-20T13:31:47;14.95;;;4.38;;
59308;SDS011;48433;53.016;-2.260;2022-11-20T13:34:25;18.35;;;3.78;;
59308;SDS011;48433;53.016;-2.260;2022-11-20T13:36:55;20.42;;;4.18;;
59308;SDS011;48433;53.016;-2.260;2022-11-20T13:39:28;15.82;;;3.17;;
59308;SDS011;48433;53.016;-2.260;2022-11-20T13:42:23;18.38;;;3.38;;
59308;SDS011;48433;53.016;-2.260;2022-11-20T13:44:54;16.48;;;3.35;;
59308;SDS011;48433;53.016;-2.260;2022-11-20T13:47:28;12.57;;;2.97;;
59308;SDS011;48433;53.016;-2.260;2022-11-20T13:49:57;17.58;;;3.28;;
59308;SDS011;48433;53.016;-2.260;2022-11-20T14:00:41;8.90;;;2.30;;
59308;SDS011;48433;53.016;-2.260;2022-11-20T14:03:18;12.00;;;2.53;;
59308;SDS011;48433;53.016;-2.260;2022-11-20T14:06:14;10.32;;;2.38;;
59308;SDS011;48433;53.016;-2.260;2022-11-20T14:09:04;15.98;;;3.22;;
59308;SDS011;48433;53.016;-2.260;2022-11-20T14:11:37;10.20;;;2.47;;
59308;SDS011;48433;53.016;-2.260;2022-11-20T14:14:15;12.20;;;3.50;;
59308;SDS011;48433;53.016;-2.260;2022-11-20T14:16:44;10.18;;;2.58;;
59308;SDS011;48433;53.016;-2.260;2022-11-20T14:21:47;7.35;;;2.00;;
59308;SDS011;48433;53.016;-2.260;2022-11-20T14:24:35;4.47;;;1.23;;
59308;SDS011;48433;53.016;-2.260;2022-11-20T14:27:02;6.05;;;1.50;;
59308;SDS011;48433;53.016;-2.260;2022-11-20T14:29:34;5.28;;;1.50;;
59308;SDS011;48433;53.016;-2.260;2022-11-20T14:32:03;7.65;;;2.33;;
59308;SDS011;48433;53.016;-2.260;2022-11-20T14:34:32;5.05;;;1.25;;
59308;SDS011;48433;53.016;-2.260;2022-11-20T14:37:12;9.75;;;1.45;;
59308;SDS011;48433;53.016;-2.260;2022-11-20T14:39:48;5.95;;;1.60;;
59308;SDS011;48433;53.016;-2.260;2022-11-20T14:42:20;8.82;;;2.17;;
59308;SDS011;48433;53.016;-2.260;2022-11-20T14:44:50;4.20;;;1.98;;
59308;SDS011;48433;53.016;-2.260;2022-11-20T14:47:23;3.28;;;1.30;;
59308;SDS011;48433;53.016;-2.260;2022-11-20T14:49:54;7.75;;;1.50;;
59308;SDS011;48433;53.016;-2.260;2022-11-20T14:52:23;6.35;;;1.20;;
59308;SDS011;48433;53.016;-2.260;2022-11-20T14:54:57;5.93;;;1.70;;
59308;SDS011;48433;53.016;-2.260;2022-11-20T14:57:29;7.75;;;1.67;;
59308;SDS011;48433;53.016;-2.260;2022-11-20T15:00:06;4.68;;;1.35;;
59308;SDS011;48433;53.016;-2.260;2022-11-20T15:02:34;5.35;;;1.08;;
59308;SDS011;48433;53.016;-2.260;2022-11-20T15:05:05;4.57;;;1.65;;
59308;SDS011;48433;53.016;-2.260;2022-11-20T15:07:39;3.42;;;1.02;;
59308;SDS011;48433;53.016;-2.260;2022-11-20T15:12:46;4.28;;;1.33;;
59308;SDS011;48433;53.016;-2.260;2022-11-20T15:16:15;6.97;;;1.65;;
59308;SDS011;48433;53.016;-2.260;2022-11-20T15:18:14;8.60;;;1.52;;
59308;SDS011;48433;53.016;-2.260;2022-11-20T15:23:13;6.63;;;2.45;;
59308;SDS011;48433;53.016;-2.260;2022-11-20T15:25:42;3.60;;;1.33;;
59308;SDS011;48433;53.016;-2.260;2022-11-20T15:28:13;2.88;;;1.20;;
59308;SDS011;48433;53.016;-2.260;2022-11-20T15:30:45;7.15;;;1.50;;
59308;SDS011;48433;53.016;-2.260;2022-11-20T15:33:13;7.07;;;1.60;;
59308;SDS011;48433;53.016;-2.260;2022-11-20T15:35:42;3.83;;;1.20;;
59308;SDS011;48433;53.016;-2.260;2022-11-20T15:38:10;4.13;;;1.40;;
59308;SDS011;48433;53.016;-2.260;2022-11-20T15:40:37;7.53;;;1.60;;
59308;SDS011;48433;53.016;-2.260;2022-11-20T15:43:05;5.25;;;2.10;;
59308;SDS011;48433;53.016;-2.260;2022-11-20T15:45:41;5.20;;;2.10;;
59308;SDS011;48433;53.016;-2.260;2022-11-20T15:48:10;5.13;;;2.28;;
59308;SDS011;48433;53.016;-2.260;2022-11-20T15:50:46;7.30;;;2.17;;
59308;SDS011;48433;53.016;-2.260;2022-11-20T15:53:18;9.93;;;3.88;;
59308;SDS011;48433;53.016;-2.260;2022-11-20T15:55:46;6.75;;;2.33;;
59308;SDS011;48433;53.016;-2.260;2022-11-20T15:58:14;22.73;;;9.98;;
59308;SDS011;48433;53.016;-2.260;2022-11-20T16:00:43;12.18;;;4.72;;
59308;SDS011;48433;53.016;-2.260;2022-11-20T16:03:12;13.00;;;6.10;;
59308;SDS011;48433;53.016;-2.260;2022-11-20T16:05:41;11.48;;;4.72;;
59308;SDS011;48433;53.016;-2.260;2022-11-20T16:08:09;13.15;;;6.38;;
59308;SDS011;48433;53.016;-2.260;2022-11-20T16:10:38;8.93;;;3.75;;
59308;SDS011;48433;53.016;-2.260;2022-11-20T16:13:16;21.05;;;9.88;;
59308;SDS011;48433;53.016;-2.260;2022-11-20T16:16:04;22.33;;;10.38;;
59308;SDS011;48433;53.016;-2.260;2022-11-20T16:18:35;32.45;;;19.98;;
59308;SDS011;48433;53.016;-2.260;2022-11-20T16:21:03;12.82;;;6.22;;
59308;SDS011;48433;53.016;-2.260;2022-11-20T16:23:31;7.07;;;2.72;;
59308;SDS011;48433;53.016;-2.260;2022-11-20T16:26:00;10.18;;;3.50;;
59308;SDS011;48433;53.016;-2.260;2022-11-20T16:28:36;12.15;;;6.47;;
59308;SDS011;48433;53.016;-2.260;2022-11-20T16:31:07;14.13;;;7.93;;
59308;SDS011;48433;53.016;-2.260;2022-11-20T16:33:36;13.55;;;7.63;;
59308;SDS011;48433;53.016;-2.260;2022-11-20T16:36:13;14.90;;;7.90;;